Latest Coastal Weather Observations for Bundaberg

IDQ60701

Issued at 11:22 pm EST Wednesday 27 July 2016 (issued every 10 minutes, with the page automatically refreshed every 10 minutes)

About coastal observations | Map of coastal stations | Coastal observations for QLD | Marine services | Other Formats
Station Details ID: 039128 Name: BUNDABERG AERO Lat: -24.91 Lon: 152.32 Height: 30.82 m
Data from the previous 72 hours. | See also: Recent months at Bundaberg
Date/Time
EST
Temp
°C
Wind Pressure Rain since
9am
mm
Weather Cloud Vis
km
Sea
Height
m
Swell
Dir  Spd
kts
Gust
kts
hPa Trend Height
m
Period
s
Dir
27/11:00pm 11.4 SW 5 7 1021.8 - 0.0 - - 10 - - - -
27/10:30pm 11.8 CALM 0 0 1021.8 - 0.0 - - 10 - - - -
27/10:00pm 12.7 SSW 1 4 1021.6 - 0.0 - - 10 - - - -
27/09:30pm 12.7 CALM 0 0 1021.4 - 0.0 - - 10 - - - -
27/09:00pm 12.9 CALM 0 0 1021.3 - 0.0 - Mostly cloudy 10 - - - -
27/08:30pm 13.2 CALM 0 0 1020.8 - 0.0 - - 10 - - - -
27/08:00pm 13.5 CALM 0 0 1020.6 - 0.0 - - 10 - - - -
27/07:30pm 13.8 S 2 3 1020.1 - 0.0 - - 10 - - - -
27/07:00pm 15.7 SSW 2 4 1019.6 - 0.0 - - 10 - - - -
27/06:30pm 16.6 SSW 4 6 1019.4 - 0.0 - - 10 - - - -
27/06:00pm 17.3 SW 6 8 1019.1 - 0.0 - Cloudy 10 - - - -
27/05:30pm 18.0 SSW 7 11 1018.9 - 0.0 - - 10 - - - -
27/05:00pm 18.4 SW 5 7 1018.5 - 0.0 - - 10 - - - -
27/04:30pm 19.1 SW 7 10 1018.3 - 0.0 - - 10 - - - -
27/04:00pm 19.6 SW 9 12 1017.9 - 0.0 - - 10 - - - -
27/03:30pm 20.1 SW 10 17 1017.7 - 0.0 - - 10 - - - -
27/03:00pm 20.9 SW 9 13 1017.3 - 0.0 - - 10 - - - -
27/02:30pm 22.0 SW 13 18 1017.3 - 0.0 - - 10 - - - -
27/02:00pm 23.4 SSW 13 20 1017.3 - 0.0 - - 10 - - - -
27/01:30pm 23.1 SW 13 18 1017.4 - 0.0 - - 10 - - - -
27/01:00pm 22.9 SSW 12 17 1017.5 - 0.0 - - 10 - - - -
27/12:30pm 22.7 SSW 11 17 1017.6 - 0.0 - - 10 - - - -
27/12:00pm 22.6 SW 8 11 1018.3 - 0.0 - - 10 - - - -
27/11:30am 21.9 SW 9 13 1019.0 - 0.0 - - 10 - - - -
27/11:00am 21.8 SSW 9 13 1019.6 - 0.0 - - 10 - - - -
27/10:30am 21.1 SW 6 9 1020.0 - 0.0 - - 10 - - - -
27/10:00am 19.8 SW 8 11 1020.3 - 0.0 - - 10 - - - -
27/09:30am 18.5 SW 9 12 1020.3 - 0.0 - - 10 - - - -
27/09:00am 17.8 SSW 7 11 1020.6 - 0.0 - Mostly clear 10 - - - -
27/08:30am 16.2 SW 8 12 1020.3 - 0.0 - Partly cloudy 10 - - - -
27/08:00am 16.0 SW 7 9 1020.2 - 0.0 - Cloudy 10 - - - -
27/07:30am 13.9 SW 5 7 1019.7 - 0.0 - Partly cloudy 10 - - - -
27/07:00am 13.3 SW 4 6 1019.6 - 0.0 - Partly cloudy 10 - - - -
27/06:30am 13.5 SW 5 7 1019.5 - 0.0 - Cloudy 10 - - - -
27/06:00am 13.4 SW 5 6 1019.2 - 0.0 - Mostly cloudy 10 - - - -
27/05:30am 13.4 SW 5 6 1019.0 - 0.0 - Partly cloudy 10 - - - -
27/05:00am 13.2 SW 4 6 1018.7 - 0.0 - Partly cloudy 10 - - - -
27/04:30am 13.5 SSW 6 8 1018.7 - 0.0 - Partly cloudy 10 - - - -
27/04:00am 13.5 SW 6 8 1018.6 - 0.0 - Cloudy 10 - - - -
27/03:30am 13.1 SW 8 10 1018.9 - 0.0 - Cloudy 10 - - - -
27/03:00am 13.0 SW 7 9 1018.8 - 0.0 - Cloudy 10 - - - -
27/02:30am 11.5 SW 4 6 1018.5 - 0.0 - Partly cloudy 10 - - - -
27/02:00am 11.9 CALM 0 0 1018.5 - 0.0 - Partly cloudy 10 - - - -
27/01:30am 12.4 CALM 0 0 1018.6 - 0.0 - Partly cloudy 10 - - - -
27/01:00am 13.4 SSW 1 3 1018.8 - 0.0 - Cloudy 10 - - - -
27/12:30am 14.0 SW 5 7 1018.9 - 0.0 - Partly cloudy 10 - - - -
27/12:00am 14.7 SW 4 6 1018.8 - 0.0 - Mostly cloudy 10 - - - -
 
Date/Time
EST
Temp
°C
Wind Pressure Rain since
9am
mm
Weather Cloud Vis
km
Sea
Height
m
Swell
Dir  Spd
kts
Gust
kts
hPa Trend Height
m
Period
s
Dir
26/11:30pm 13.1 WSW 3 4 1019.0 - 0.0 - Cloudy 10 - - - -
26/11:00pm 13.3 W 4 5 1018.9 - 0.0 - Cloudy 10 - - - -
26/10:30pm 12.5 W 3 5 1019.0 - 0.0 - Partly cloudy 10 - - - -
26/10:00pm 11.9 CALM 0 0 1019.0 - 0.0 - - 10 - - - -
26/09:30pm 12.6 SW 3 5 1019.0 - 0.0 - - 10 - - - -
26/09:00pm 13.3 CALM 0 0 1018.9 - 0.0 - - 10 - - - -
26/08:30pm 13.3 CALM 0 0 1018.9 - 0.0 - - 10 - - - -
26/08:00pm 14.2 CALM 0 0 1018.7 - 0.0 - Partly cloudy 10 - - - -
26/07:30pm 14.6 CALM 0 0 1018.3 - 0.0 - - 10 - - - -
26/07:00pm 15.0 CALM 0 0 1018.0 - 0.0 - - 10 - - - -
26/06:30pm 15.6 CALM 0 0 1017.5 - 0.0 - - 10 - - - -
26/06:00pm 17.1 SE 4 5 1017.0 - 0.0 - Mostly cloudy 10 - - - -
26/05:30pm 18.2 S 2 5 1017.0 - 0.0 - - 10 - - - -
26/05:00pm 19.6 CALM 0 0 1016.7 - 0.0 - - 10 - - - -
26/04:30pm 20.6 S 4 5 1016.7 - 0.0 - - 10 - - - -
26/04:00pm 21.8 S 5 7 1016.6 - 0.0 - - 10 - - - -
26/03:30pm 21.7 SW 6 9 1016.8 - 0.0 - - 10 - - - -
26/03:00pm 21.7 SSW 6 10 1016.6 - 0.0 - - 10 - - - -
26/02:30pm 22.3 SW 6 9 1016.9 - 0.0 - - 10 - - - -
26/02:00pm 22.1 SW 6 10 1017.1 - 0.0 - - 10 - - - -
26/01:30pm 22.1 WSW 6 9 1017.4 - 0.0 - - 10 - - - -
26/01:00pm 21.9 SSW 6 9 1017.8 - 0.0 - - 10 - - - -
26/12:30pm 21.5 SW 7 11 1018.3 - 0.0 - - 10 - - - -
26/12:00pm 21.0 S 6 10 1018.7 - 0.0 - - 10 - - - -
26/11:30am 20.9 SW 7 11 1019.3 - 0.0 - - 10 - - - -
26/11:00am 20.3 SSW 5 10 1019.7 - 0.0 - Partly cloudy 10 - - - -
26/10:30am 19.4 SW 7 10 1019.8 - 0.0 - - 10 - - - -
26/10:00am 19.0 SW 8 12 1020.1 - 0.0 - - 10 - - - -
26/09:30am 17.4 SW 7 10 1020.3 - 0.0 - - 10 - - - -
26/09:00am 15.8 SW 7 9 1020.3 - 0.0 - - 10 - - - -
26/08:30am 14.5 SW 6 8 1020.3 - 0.0 - - 10 - - - -
26/08:00am 13.0 SW 7 8 1020.0 - 0.0 - - 10 - - - -
26/07:30am 11.1 SW 6 8 1020.0 - 0.0 - - 10 - - - -
26/07:00am 9.5 SW 5 7 1019.7 - 0.0 - - 10 - - - -
26/06:30am 9.1 SW 4 7 1019.6 - 0.0 - - 10 - - - -
26/06:00am 9.6 SW 5 7 1019.2 - 0.0 - - 10 - - - -
26/05:30am 10.1 SW 7 8 1018.9 - 0.0 - - 10 - - - -
26/05:00am 10.0 SW 5 7 1018.7 - 0.0 - - 10 - - - -
26/04:30am 10.5 SW 6 8 1018.4 - 0.0 - - 10 - - - -
26/04:00am 10.9 SW 7 9 1018.2 - 0.0 - - 10 - - - -
26/03:30am 10.6 SW 6 8 1018.1 - 0.0 - - 10 - - - -
26/03:00am 8.8 WSW 2 5 1018.2 - 0.0 - - 10 - - - -
26/02:30am 8.8 SSW 1 4 1018.3 - 0.0 - - 10 - - - -
26/02:00am 9.0 S 3 5 1018.3 - 0.0 - - 10 - - - -
26/01:30am 9.6 SSE 2 4 1018.5 - 0.0 - - 10 - - - -
26/01:00am 11.0 CALM 0 0 1018.6 - 0.0 - - 10 - - - -
26/12:30am 13.0 SSW 4 6 1018.8 - 0.0 - - 10 - - - -
26/12:00am 13.4 SSW 5 6 1018.6 - 0.0 - - 10 - - - -
 
Date/Time
EST
Temp
°C
Wind Pressure Rain since
9am
mm
Weather Cloud Vis
km
Sea
Height
m
Swell
Dir  Spd
kts
Gust
kts
hPa Trend Height
m
Period
s
Dir
25/11:30pm 13.7 SSW 5 8 1018.4 - 0.0 - - 10 - - - -
25/11:00pm 14.3 SSW 6 8 1018.5 - 0.0 - - 10 - - - -
25/10:30pm 14.5 SW 5 6 1018.6 - 0.0 - - 10 - - - -
25/10:00pm 15.9 SSW 6 7 1018.4 - 0.0 - - 10 - - - -
25/09:30pm 17.1 SSW 7 9 1018.4 - 0.0 - - 10 - - - -
25/09:00pm 17.5 SSW 8 10 1018.2 - 0.0 - - 10 - - - -
25/08:30pm 17.5 SSW 7 10 1018.2 - 0.0 - - 10 - - - -
25/08:00pm 17.7 SW 7 9 1017.8 - 0.0 - - 10 - - - -
25/07:30pm 16.8 SW 5 8 1017.7 - 0.0 - - 10 - - - -
25/07:00pm 15.7 SSW 4 6 1017.5 - 0.0 - - 10 - - - -
25/06:30pm 16.6 SSW 4 5 1017.0 - 0.0 - - 10 - - - -
25/06:00pm 16.7 CALM 0 0 1016.7 - 0.0 - - 10 - - - -
25/05:30pm 19.6 S 3 4 1016.4 - 0.0 - - 10 - - - -
25/05:00pm 20.8 S 3 4 1016.2 - 0.0 - - 10 - - - -
25/04:30pm 22.3 SSW 5 8 1016.0 - 0.0 - - 10 - - - -
25/04:00pm 22.7 SSW 6 10 1015.7 - 0.0 - - 10 - - - -
25/03:30pm 23.2 SSW 6 9 1015.6 - 0.0 - - 10 - - - -
25/03:00pm 23.2 SW 6 9 1015.4 - 0.0 - - 10 - - - -
25/02:30pm 22.9 SW 7 10 1015.5 - 0.0 - - 10 - - - -
25/02:00pm 23.0 SW 7 11 1016.0 - 0.0 - - 10 - - - -
25/01:30pm 22.4 SW 8 11 1016.2 - 0.0 - - 10 - - - -
25/01:00pm 22.4 SW 7 12 1016.5 - 0.0 - - 10 - - - -
25/12:30pm 21.8 WSW 10 13 1016.8 - 0.0 - - 10 - - - -
25/12:00pm 21.5 SW 9 15 1017.4 - 0.0 - - 10 - - - -
25/11:30am 21.5 SSW 9 13 1018.0 - 0.0 - - 10 - - - -
25/11:00am 20.8 SSW 10 14 1018.4 - 0.0 - - 10 - - - -
25/10:30am 19.9 SW 11 17 1018.8 - 0.0 - - 10 - - - -
25/10:00am 19.7 SW 11 15 1019.1 - 0.0 - - 10 - - - -
25/09:30am 19.1 SW 9 13 1019.2 - 0.0 - - 10 - - - -
25/09:00am 18.5 SW 8 12 1019.1 - 0.0 - - 10 - - - -
25/08:30am 17.4 SW 9 14 1018.9 - 0.0 - - 10 - - - -
25/08:00am 16.2 SW 9 14 1018.7 - 0.0 - - 10 - - - -
25/07:30am 15.5 SW 7 11 1018.2 - 0.0 - - 10 - - - -
25/07:00am 14.4 SW 5 7 1017.7 - 0.0 - - 10 - - - -
25/06:30am 14.2 SW 6 8 1017.2 - 0.0 - - 10 - - - -
25/06:00am 13.9 SW 6 7 1016.7 - 0.0 - - 10 - - - -
25/05:30am 13.8 WSW 3 4 1016.4 - 0.0 - - 10 - - - -
25/05:00am 13.1 W 5 5 1016.0 - 0.0 - - 10 - - - -
25/04:30am 14.3 WSW 3 3 1015.6 - 0.0 - - 10 - - - -
25/04:00am 15.2 WSW 5 6 1015.4 - 0.0 - - 10 - - - -
25/03:30am 15.1 WSW 5 7 1015.4 - 0.0 - - 10 - - - -
25/03:00am 14.9 WSW 4 5 1015.2 - 0.0 - - 10 - - - -
25/02:30am 15.0 WSW 4 5 1015.1 - 0.0 - - 10 - - - -
25/02:00am 14.6 W 6 7 1015.1 - 0.0 - - 10 - - - -
25/01:30am 14.3 NW 4 5 1015.2 - 0.0 - - 10 - - - -
25/01:00am 14.0 NW 4 5 1015.2 - 0.0 - - 10 - - - -
25/12:30am 14.3 CALM 0 0 1015.4 - 0.0 - - 10 - - - -
25/12:00am 14.6 CALM 0 0 1015.3 - 0.0 - - 10 - - - -
 
Date/Time
EST
Temp
°C
Wind Pressure Rain since
9am
mm
Weather Cloud Vis
km
Sea
Height
m
Swell
Dir  Spd
kts
Gust
kts
hPa Trend Height
m
Period
s
Dir
24/11:30pm 14.7 CALM 0 0 1015.4 - 0.0 - - 10 - - - -

Other Formats:

Comma delimited format used in spreadsheet applications
http://www.bom.gov.au/fwo/IDQ60701/IDQ60701.94387.axf

JavaScript Object Notation format (JSON) in row-major order
http://www.bom.gov.au/fwo/IDQ60701/IDQ60701.94387.json